createdAt,value
2019-06-26T00:01:03.960Z,24.8
2019-06-26T00:03:03.921Z,24.9
2019-06-26T00:05:03.943Z,24.9
2019-06-26T00:07:03.953Z,24.9
2019-06-26T00:07:20.946Z,24.9
2019-06-26T00:09:03.942Z,24.8
2019-06-26T00:11:03.926Z,24.8
2019-06-26T00:13:03.924Z,24.6
2019-06-26T00:15:03.939Z,24.5
2019-06-26T00:17:03.879Z,24.4
2019-06-26T00:19:03.940Z,24.6
2019-06-26T00:21:03.918Z,24.5
2019-06-26T00:22:21.770Z,24.4
2019-06-26T00:23:03.937Z,24.4
2019-06-26T00:25:03.916Z,24.5
2019-06-26T00:27:03.873Z,24.4
2019-06-26T00:29:03.914Z,24.4
2019-06-26T00:31:03.845Z,24.3
2019-06-26T00:33:03.918Z,24.3
2019-06-26T00:35:03.944Z,24.3
2019-06-26T00:37:03.925Z,24.4
2019-06-26T00:37:20.835Z,24.4
2019-06-26T00:39:03.922Z,24.4
2019-06-26T00:41:03.943Z,24.4
2019-06-26T00:43:03.910Z,24.4
2019-06-26T00:45:03.938Z,24.4
2019-06-26T00:47:03.932Z,24.3
2019-06-26T00:49:03.939Z,24.3
2019-06-26T00:51:03.975Z,24.3
2019-06-26T00:52:20.859Z,24.3
2019-06-26T00:53:03.943Z,24.3
2019-06-26T00:55:03.896Z,24.2
2019-06-26T00:57:03.893Z,24.3
2019-06-26T00:59:03.886Z,24.3
2019-06-26T01:01:03.932Z,24.3
2019-06-26T01:03:03.936Z,24.3
2019-06-26T01:05:03.924Z,24.2
2019-06-26T01:07:03.922Z,24.1
2019-06-26T01:07:20.808Z,24.1
2019-06-26T01:09:03.954Z,24.1
2019-06-26T01:11:03.936Z,24.1
2019-06-26T01:13:03.932Z,24.1
2019-06-26T01:15:03.948Z,24.1
2019-06-26T01:17:03.949Z,24.1
2019-06-26T01:19:03.936Z,24.1
2019-06-26T01:21:03.907Z,24
2019-06-26T01:22:20.972Z,24
2019-06-26T01:23:03.929Z,23.9
2019-06-26T01:25:03.882Z,23.9
2019-06-26T01:27:03.909Z,23.9
2019-06-26T01:29:03.985Z,23.9
2019-06-26T01:31:03.965Z,23.9
2019-06-26T01:33:03.926Z,23.8
2019-06-26T01:35:03.913Z,23.8
2019-06-26T01:37:03.946Z,23.8
2019-06-26T01:37:20.828Z,23.8
2019-06-26T01:39:03.943Z,23.7
2019-06-26T01:41:03.894Z,23.6
2019-06-26T01:43:03.923Z,23.6
2019-06-26T01:45:03.936Z,23.6
2019-06-26T01:47:03.912Z,23.6
2019-06-26T01:49:03.906Z,23.6
2019-06-26T01:51:03.922Z,23.6
2019-06-26T01:52:20.890Z,23.5
2019-06-26T01:53:03.897Z,23.5
2019-06-26T01:55:03.924Z,23.5
2019-06-26T01:57:03.939Z,23.4
2019-06-26T01:59:03.890Z,23.4
2019-06-26T02:01:03.942Z,23.5
2019-06-26T02:03:03.904Z,23.5
2019-06-26T02:05:03.949Z,23.5
2019-06-26T02:07:03.931Z,23.4
2019-06-26T02:07:20.817Z,23.4
2019-06-26T02:09:03.935Z,23.4
2019-06-26T02:11:03.874Z,23.4
2019-06-26T02:13:03.937Z,23.4
2019-06-26T02:15:03.822Z,23.4
2019-06-26T02:17:03.917Z,23.4
2019-06-26T02:19:03.929Z,23.4
2019-06-26T02:21:03.894Z,23.3
2019-06-26T02:22:20.873Z,23.3
2019-06-26T02:23:03.933Z,23.3
2019-06-26T02:25:03.890Z,23.2
2019-06-26T02:27:03.929Z,23.1
2019-06-26T02:29:03.892Z,23.1
2019-06-26T02:31:03.890Z,23.1
2019-06-26T02:33:04.016Z,23
2019-06-26T02:35:09.009Z,23
2019-06-26T02:37:03.906Z,23
2019-06-26T02:37:20.879Z,22.9
2019-06-26T02:39:03.826Z,22.9
2019-06-26T02:41:03.926Z,22.9
2019-06-26T02:43:06.918Z,22.8
2019-06-26T02:45:03.927Z,22.8
2019-06-26T02:47:17.994Z,22.7
2019-06-26T02:49:03.919Z,22.7
2019-06-26T02:51:04.276Z,22.7
2019-06-26T02:52:20.832Z,22.6
2019-06-26T02:53:03.920Z,22.6
2019-06-26T02:55:05.732Z,22.6
2019-06-26T02:57:03.883Z,22.6
2019-06-26T02:59:03.936Z,22.6
2019-06-26T03:01:03.926Z,22.6
2019-06-26T03:03:03.936Z,22.6
2019-06-26T03:05:03.931Z,22.4
2019-06-26T03:07:03.932Z,22.4
2019-06-26T03:07:20.856Z,22.4
2019-06-26T03:09:03.906Z,22.4
2019-06-26T03:11:03.948Z,22.4
2019-06-26T03:13:03.926Z,22.4
2019-06-26T03:15:08.619Z,22.4
2019-06-26T03:17:03.930Z,22.3
2019-06-26T03:19:03.926Z,22.4
2019-06-26T03:21:03.929Z,22.3
2019-06-26T03:22:20.954Z,22.3
2019-06-26T03:23:03.936Z,22.3
2019-06-26T03:25:03.920Z,22.3
2019-06-26T03:27:03.935Z,22.2
2019-06-26T03:29:03.904Z,22.2
2019-06-26T03:31:03.929Z,22.3
2019-06-26T03:33:03.884Z,22.2
2019-06-26T03:35:04.854Z,22.2
2019-06-26T03:37:03.924Z,22.1
2019-06-26T03:37:20.869Z,22.1
2019-06-26T03:39:03.854Z,22.1
2019-06-26T03:41:03.936Z,22.1
2019-06-26T03:43:03.923Z,22
2019-06-26T03:45:03.937Z,22
2019-06-26T03:47:03.855Z,21.9
2019-06-26T03:49:13.950Z,21.9
2019-06-26T03:51:03.932Z,21.9
2019-06-26T03:52:20.851Z,21.8
2019-06-26T03:53:04.642Z,21.9
2019-06-26T03:55:03.951Z,21.8
2019-06-26T03:57:03.956Z,21.8
2019-06-26T03:59:03.960Z,21.8
2019-06-26T04:01:03.970Z,21.8
2019-06-26T04:03:03.931Z,21.8
2019-06-26T04:05:03.955Z,21.8
2019-06-26T04:07:03.957Z,21.8
2019-06-26T04:07:20.727Z,21.8
2019-06-26T04:09:03.934Z,21.8
2019-06-26T04:11:03.862Z,21.8
2019-06-26T04:13:03.950Z,21.8
2019-06-26T04:15:03.934Z,21.8
2019-06-26T04:17:04.816Z,21.7
2019-06-26T04:19:03.947Z,21.7
2019-06-26T04:21:03.930Z,21.6
2019-06-26T04:22:20.908Z,21.6
2019-06-26T04:23:04.792Z,21.6
2019-06-26T04:25:03.831Z,21.7
2019-06-26T04:27:03.914Z,21.7
2019-06-26T04:29:03.935Z,21.7
2019-06-26T04:31:03.891Z,21.6
2019-06-26T04:33:03.915Z,21.7
2019-06-26T04:35:03.952Z,21.6
2019-06-26T04:37:03.810Z,21.6
2019-06-26T04:37:20.941Z,21.6
2019-06-26T04:39:03.927Z,21.8
2019-06-26T04:41:03.923Z,21.8
2019-06-26T04:43:04.823Z,21.9
2019-06-26T04:45:03.928Z,21.8
2019-06-26T04:47:03.941Z,21.8
2019-06-26T04:49:03.934Z,21.8
2019-06-26T04:51:04.821Z,21.8
2019-06-26T04:52:20.760Z,21.7
2019-06-26T04:53:03.930Z,21.8
2019-06-26T04:55:03.924Z,21.8
2019-06-26T04:57:03.980Z,21.9
2019-06-26T04:59:03.913Z,21.9
2019-06-26T05:01:03.918Z,21.9
2019-06-26T05:03:03.874Z,21.8
2019-06-26T05:05:03.950Z,21.8
2019-06-26T05:07:03.933Z,21.8
2019-06-26T05:07:20.863Z,21.8
2019-06-26T05:09:03.948Z,21.9
2019-06-26T05:11:03.946Z,21.9
2019-06-26T05:13:03.925Z,21.9
2019-06-26T05:15:04.753Z,21.9
2019-06-26T05:17:03.945Z,22
2019-06-26T05:19:03.926Z,22
2019-06-26T05:21:03.941Z,22
2019-06-26T05:22:21.033Z,21.9
2019-06-26T05:23:03.899Z,21.9
2019-06-26T05:25:04.058Z,21.8
2019-06-26T05:27:03.907Z,21.8
2019-06-26T05:29:03.932Z,21.8
2019-06-26T05:31:03.967Z,21.8
2019-06-26T05:33:03.931Z,21.9
2019-06-26T05:35:03.924Z,22
2019-06-26T05:37:04.795Z,22
2019-06-26T05:37:20.930Z,22
2019-06-26T05:39:03.846Z,22.1
2019-06-26T05:41:03.937Z,21.9
2019-06-26T05:43:03.872Z,22
2019-06-26T05:45:03.944Z,21.9
2019-06-26T05:47:06.907Z,21.9
2019-06-26T05:49:03.916Z,21.9
2019-06-26T05:51:03.936Z,21.8
2019-06-26T05:52:21.038Z,21.8
2019-06-26T05:53:03.981Z,21.9
2019-06-26T05:55:03.893Z,22
2019-06-26T05:57:03.881Z,22.1
2019-06-26T05:59:03.920Z,22.2
2019-06-26T06:01:03.940Z,22.1
2019-06-26T06:03:13.884Z,22
2019-06-26T06:05:03.941Z,22.1
2019-06-26T06:07:03.956Z,22.3
2019-06-26T06:07:20.822Z,22.3
2019-06-26T06:09:03.884Z,22.2
2019-06-26T06:11:03.887Z,22.1
2019-06-26T06:13:03.965Z,22.1
2019-06-26T06:15:03.889Z,22
2019-06-26T06:17:03.934Z,22.1
2019-06-26T06:19:03.941Z,22.1
2019-06-26T06:21:03.893Z,22
2019-06-26T06:22:20.925Z,22.1
2019-06-26T06:23:03.913Z,22.2
2019-06-26T06:25:03.931Z,22.2
2019-06-26T06:27:03.920Z,22.3
2019-06-26T06:29:03.998Z,22.3
2019-06-26T06:31:03.930Z,22.3
2019-06-26T06:33:03.924Z,22.3
2019-06-26T06:35:03.928Z,22.3
2019-06-26T06:37:03.940Z,22.4
2019-06-26T06:37:20.869Z,22.4
2019-06-26T06:39:03.913Z,22.5
2019-06-26T06:41:03.919Z,22.4
2019-06-26T06:43:03.918Z,22.3
2019-06-26T06:45:03.916Z,22.5
2019-06-26T06:47:04.621Z,22.6
2019-06-26T06:49:03.930Z,22.8
2019-06-26T06:51:03.837Z,22.6
2019-06-26T06:52:20.979Z,22.7
2019-06-26T06:53:03.946Z,22.8
2019-06-26T06:55:03.931Z,22.7
2019-06-26T06:57:03.866Z,22.6
2019-06-26T06:59:03.940Z,22.8
2019-06-26T07:01:03.936Z,22.6
2019-06-26T07:03:03.935Z,22.7
2019-06-26T07:05:03.885Z,22.8
2019-06-26T07:07:03.941Z,22.9
2019-06-26T07:07:20.780Z,22.8
2019-06-26T07:09:03.860Z,22.8
2019-06-26T07:11:03.949Z,22.7
2019-06-26T07:13:03.945Z,22.7
2019-06-26T07:15:03.927Z,22.8
2019-06-26T07:17:19.181Z,22.8
2019-06-26T07:19:03.922Z,22.9
2019-06-26T07:21:03.916Z,22.9
2019-06-26T07:22:20.909Z,22.8
2019-06-26T07:23:04.806Z,22.8
2019-06-26T07:25:03.928Z,22.9
2019-06-26T07:27:04.038Z,23
2019-06-26T07:29:03.932Z,22.9
2019-06-26T07:31:03.933Z,22.9
2019-06-26T07:33:03.900Z,23
2019-06-26T07:35:03.938Z,23.1
2019-06-26T07:37:03.923Z,23.1
2019-06-26T07:37:20.853Z,23.1
2019-06-26T07:39:03.927Z,23.1
2019-06-26T07:41:03.920Z,23.1
2019-06-26T07:43:03.882Z,23.1
2019-06-26T07:45:03.920Z,23.2
2019-06-26T07:47:03.949Z,23.3
2019-06-26T07:49:03.899Z,23.4
2019-06-26T07:51:03.878Z,23.4
2019-06-26T07:52:20.903Z,23.4
2019-06-26T07:53:03.937Z,23.4
2019-06-26T07:55:03.894Z,23.4
2019-06-26T07:57:03.929Z,23.6
2019-06-26T07:59:03.883Z,23.6
2019-06-26T08:01:03.920Z,23.8
2019-06-26T08:03:04.402Z,23.8
2019-06-26T08:05:03.935Z,23.8
2019-06-26T08:07:03.879Z,23.7
2019-06-26T08:07:20.843Z,23.7
2019-06-26T08:09:03.941Z,23.8
2019-06-26T08:11:06.319Z,23.8
2019-06-26T08:13:03.965Z,23.9
2019-06-26T08:15:03.877Z,23.8
2019-06-26T08:17:04.797Z,23.8
2019-06-26T08:19:03.900Z,23.9
2019-06-26T08:21:11.868Z,23.9
2019-06-26T08:22:20.978Z,23.9
2019-06-26T08:23:05.836Z,24.1
2019-06-26T08:25:03.923Z,24.1
2019-06-26T08:27:03.943Z,24.1
2019-06-26T08:29:03.930Z,24
2019-06-26T08:31:03.936Z,24.1
2019-06-26T08:33:03.931Z,24.3
2019-06-26T08:35:03.907Z,24.3
2019-06-26T08:37:03.929Z,24.4
2019-06-26T08:37:20.851Z,24.5
2019-06-26T08:39:03.907Z,24.6
2019-06-26T08:41:03.860Z,24.6
2019-06-26T08:43:03.954Z,24.4
2019-06-26T08:45:03.920Z,24.7
2019-06-26T08:47:03.876Z,24.7
2019-06-26T08:49:03.922Z,24.7
2019-06-26T08:51:03.910Z,24.5
2019-06-26T08:52:20.878Z,24.6
2019-06-26T08:53:03.989Z,24.5
2019-06-26T08:55:03.877Z,24.6
2019-06-26T08:57:03.921Z,24.4
2019-06-26T08:59:03.879Z,24.4
2019-06-26T09:01:03.948Z,24.6
2019-06-26T09:03:03.905Z,24.8
2019-06-26T09:05:03.926Z,24.8
2019-06-26T09:07:03.928Z,24.8
2019-06-26T09:07:20.893Z,24.9
2019-06-26T09:09:03.946Z,24.9
2019-06-26T09:11:03.898Z,25.1
2019-06-26T09:13:03.925Z,25.1
2019-06-26T09:15:04.071Z,24.9
2019-06-26T09:17:04.830Z,24.8
2019-06-26T09:19:03.910Z,24.9
2019-06-26T09:21:03.839Z,24.8
2019-06-26T09:22:20.894Z,25
2019-06-26T09:23:03.967Z,25.1
2019-06-26T09:25:20.086Z,25
2019-06-26T09:27:03.943Z,25.1
2019-06-26T09:29:14.828Z,24.8
2019-06-26T09:31:03.920Z,24.9
2019-06-26T09:33:03.934Z,25.1
2019-06-26T09:35:05.051Z,25.2
2019-06-26T09:37:03.971Z,25.1
2019-06-26T09:37:20.956Z,25.1
2019-06-26T09:39:03.978Z,25.3
2019-06-26T09:41:04.013Z,25.1
2019-06-26T09:43:03.903Z,24.9
2019-06-26T09:45:03.940Z,25
2019-06-26T09:47:04.777Z,25.1
2019-06-26T09:49:03.900Z,25.1
2019-06-26T09:51:03.904Z,25
2019-06-26T09:52:20.942Z,25
2019-06-26T09:53:05.292Z,25
2019-06-26T09:55:03.896Z,25.1
2019-06-26T09:57:03.950Z,25.1
2019-06-26T09:59:03.894Z,25
2019-06-26T10:01:03.945Z,25
2019-06-26T10:03:03.973Z,25.1
2019-06-26T10:05:03.816Z,25.2
2019-06-26T10:07:03.991Z,25.1
2019-06-26T10:07:20.813Z,25.1
2019-06-26T10:09:03.935Z,24.9
2019-06-26T10:11:03.909Z,24.8
2019-06-26T10:13:03.933Z,24.9
2019-06-26T10:15:03.886Z,25.2
2019-06-26T10:17:03.963Z,25.1
2019-06-26T10:19:09.867Z,24.9
2019-06-26T10:21:03.949Z,25
2019-06-26T10:22:20.851Z,24.9
2019-06-26T10:23:03.937Z,25.1
2019-06-26T10:25:03.957Z,25.2
2019-06-26T10:27:03.928Z,25.3
2019-06-26T10:29:03.883Z,25.2
2019-06-26T10:31:03.930Z,25.1
2019-06-26T10:33:03.923Z,25.1
2019-06-26T10:35:03.919Z,25.4
2019-06-26T10:37:03.944Z,25.4
2019-06-26T10:37:20.860Z,25.4
2019-06-26T10:39:03.810Z,25.3
2019-06-26T10:41:03.945Z,25.4
2019-06-26T10:43:03.968Z,25.5
2019-06-26T10:45:03.944Z,25.4
2019-06-26T10:47:03.899Z,25.3
2019-06-26T10:49:04.979Z,25.3
2019-06-26T10:51:03.902Z,25.2
2019-06-26T10:52:21.861Z,25.3
2019-06-26T10:53:03.955Z,25.4
2019-06-26T10:55:04.012Z,25.5
2019-06-26T10:57:03.962Z,25.3
2019-06-26T10:59:03.944Z,25.5
2019-06-26T11:01:03.886Z,25.8
2019-06-26T11:03:03.948Z,25.8
2019-06-26T11:05:03.914Z,25.8
2019-06-26T11:07:03.952Z,25.8
2019-06-26T11:07:20.839Z,25.8
2019-06-26T11:09:03.975Z,25.9
2019-06-26T11:11:03.926Z,25.7
2019-06-26T11:13:03.973Z,25.9
2019-06-26T11:15:03.939Z,25.9
2019-06-26T11:17:03.930Z,25.8
2019-06-26T11:19:04.776Z,25.8
2019-06-26T11:21:03.898Z,25.8
2019-06-26T11:22:20.867Z,25.8
2019-06-26T11:23:03.910Z,25.7
2019-06-26T11:25:03.937Z,25.8
2019-06-26T11:27:03.915Z,25.8
2019-06-26T11:29:03.861Z,25.7
2019-06-26T11:31:04.848Z,25.9
2019-06-26T11:33:03.895Z,25.9
2019-06-26T11:35:03.897Z,25.8
2019-06-26T11:37:04.575Z,25.8
2019-06-26T11:37:23.016Z,25.9
2019-06-26T11:39:04.867Z,25.8
2019-06-26T11:41:03.927Z,25.9
2019-06-26T11:43:03.909Z,26
2019-06-26T11:45:03.985Z,25.8
2019-06-26T11:47:03.929Z,26
2019-06-26T11:49:03.968Z,25.8
2019-06-26T11:51:03.935Z,26.2
2019-06-26T11:52:21.001Z,26
2019-06-26T11:53:03.983Z,25.9
2019-06-26T11:55:04.810Z,25.9
2019-06-26T11:57:08.927Z,26.1
2019-06-26T11:59:03.951Z,26.3
2019-06-26T12:01:03.934Z,26.4
2019-06-26T12:03:03.933Z,26.3
2019-06-26T12:05:03.918Z,26.1
2019-06-26T12:07:03.958Z,26.2
2019-06-26T12:07:20.881Z,26.2
2019-06-26T12:09:03.936Z,26.4
2019-06-26T12:11:03.945Z,26.4
2019-06-26T12:13:04.293Z,26.1
2019-06-26T12:15:03.954Z,26
2019-06-26T12:17:03.943Z,25.9
2019-06-26T12:19:03.922Z,25.9
2019-06-26T12:21:03.939Z,26.2
2019-06-26T12:22:20.925Z,26.1
2019-06-26T12:23:03.897Z,26.1
2019-06-26T12:25:03.935Z,26
2019-06-26T12:27:03.900Z,26
2019-06-26T12:29:03.971Z,25.8
2019-06-26T12:31:03.877Z,26
2019-06-26T12:33:04.114Z,26.3
2019-06-26T12:35:03.914Z,26.3
2019-06-26T12:37:03.954Z,26.1
2019-06-26T12:37:33.990Z,26.1
2019-06-26T12:39:03.951Z,26.4
2019-06-26T12:41:03.898Z,26.3
2019-06-26T12:43:03.935Z,26.3
2019-06-26T12:45:03.932Z,26.2
2019-06-26T12:47:03.885Z,26.3
2019-06-26T12:49:03.986Z,26.3
2019-06-26T12:51:03.940Z,26.7
2019-06-26T12:52:20.881Z,26.6
2019-06-26T12:53:03.961Z,26.6
2019-06-26T12:55:03.950Z,26.6
2019-06-26T12:57:03.930Z,26.8
2019-06-26T12:59:03.918Z,26.5
2019-06-26T13:01:04.018Z,26.8
2019-06-26T13:03:03.898Z,26.9
2019-06-26T13:05:03.956Z,26.9
2019-06-26T13:07:03.929Z,26.6
2019-06-26T13:07:20.817Z,26.6
2019-06-26T13:09:08.913Z,26.8
2019-06-26T13:11:03.925Z,26.4
2019-06-26T13:13:03.870Z,26.7
2019-06-26T13:15:04.009Z,27.1
2019-06-26T13:17:03.957Z,26.8
2019-06-26T13:19:03.911Z,27.1
2019-06-26T13:21:05.144Z,26.9
2019-06-26T13:22:20.929Z,26.9
2019-06-26T13:23:03.930Z,27.1
2019-06-26T13:25:03.939Z,27.1
2019-06-26T13:27:03.939Z,27.3
2019-06-26T13:29:03.920Z,27.6
2019-06-26T13:31:03.927Z,27.6
2019-06-26T13:33:03.921Z,27.3
2019-06-26T13:35:03.925Z,27.5
2019-06-26T13:37:07.156Z,27.5
2019-06-26T13:37:20.772Z,27.6
2019-06-26T13:39:04.794Z,27.8
2019-06-26T13:41:03.928Z,27.6
2019-06-26T13:43:08.922Z,28
2019-06-26T13:45:04.772Z,28.4
2019-06-26T13:47:03.934Z,28.1
2019-06-26T13:49:03.893Z,28.3
2019-06-26T13:51:09.123Z,28.6
2019-06-26T13:52:20.965Z,28.9
2019-06-26T13:53:03.893Z,28.8
2019-06-26T13:55:03.928Z,28.4
2019-06-26T13:57:15.844Z,28.4
2019-06-26T13:59:07.197Z,29.1
2019-06-26T14:01:03.923Z,28.8
2019-06-26T14:03:03.930Z,28.7
2019-06-26T14:05:03.862Z,28.8
2019-06-26T14:07:03.985Z,29.2
2019-06-26T14:07:20.781Z,29.3
2019-06-26T14:09:03.943Z,29.6
2019-06-26T14:11:07.200Z,29.2
2019-06-26T14:13:03.951Z,29
2019-06-26T14:15:03.933Z,29.6
2019-06-26T14:17:03.941Z,29.1
2019-06-26T14:19:03.928Z,29.1
2019-06-26T14:21:03.943Z,29.6
2019-06-26T14:22:20.850Z,29.4
2019-06-26T14:23:03.907Z,29.3
2019-06-26T14:25:04.763Z,29.3
2019-06-26T14:27:03.888Z,30.1
2019-06-26T14:29:16.949Z,30.2
2019-06-26T14:31:03.940Z,30.4
2019-06-26T14:33:03.888Z,29.6
2019-06-26T14:35:03.892Z,29.7
2019-06-26T14:37:03.939Z,29.6
2019-06-26T14:37:20.959Z,29.8
2019-06-26T14:39:03.940Z,30
2019-06-26T14:41:03.932Z,29.6
2019-06-26T14:43:03.955Z,29.8
2019-06-26T14:45:03.951Z,29.3
2019-06-26T14:47:03.924Z,29.4
2019-06-26T14:49:03.921Z,29.7
2019-06-26T14:51:03.946Z,29.4
2019-06-26T14:52:20.989Z,29.3
2019-06-26T14:53:03.839Z,29.6
2019-06-26T14:55:03.962Z,29.9
2019-06-26T14:57:03.908Z,29.7
2019-06-26T14:59:03.862Z,29.9
2019-06-26T15:01:03.929Z,30.4
2019-06-26T15:03:03.919Z,30.5
2019-06-26T15:05:04.817Z,30.3
2019-06-26T15:07:03.914Z,30.4
2019-06-26T15:07:20.818Z,30.6
2019-06-26T15:09:03.957Z,30.8
2019-06-26T15:11:03.900Z,30.6
2019-06-26T15:13:03.937Z,30.9
2019-06-26T15:15:03.930Z,30.2
2019-06-26T15:17:03.913Z,30.1
2019-06-26T15:19:03.934Z,30.1
2019-06-26T15:21:03.944Z,30.7
2019-06-26T15:22:20.955Z,30.6
2019-06-26T15:23:03.925Z,30.2
2019-06-26T15:25:03.943Z,30.6
2019-06-26T15:27:03.899Z,29.9
2019-06-26T15:29:03.852Z,29.9
2019-06-26T15:31:03.934Z,29.4
2019-06-26T15:33:03.949Z,30
2019-06-26T15:35:03.909Z,30.4
2019-06-26T15:37:03.990Z,30.3
2019-06-26T15:37:20.885Z,30.4
2019-06-26T15:39:03.888Z,29.9
2019-06-26T15:41:03.936Z,29.9
2019-06-26T15:43:03.893Z,29.9
2019-06-26T15:45:03.893Z,30.1
2019-06-26T15:47:03.938Z,29.4
2019-06-26T15:49:03.959Z,29.5
2019-06-26T15:51:03.895Z,29.9
2019-06-26T15:52:20.905Z,29.6
2019-06-26T15:53:03.959Z,29.5
2019-06-26T15:55:03.884Z,29.5
2019-06-26T15:57:03.937Z,29.1
2019-06-26T15:59:03.884Z,29.6
2019-06-26T16:01:03.938Z,30.3
2019-06-26T16:03:03.912Z,29.1
2019-06-26T16:05:03.886Z,29.2
2019-06-26T16:07:03.916Z,29.4
2019-06-26T16:07:20.822Z,29.5
2019-06-26T16:09:03.862Z,29.9
2019-06-26T16:11:04.040Z,30.3
2019-06-26T16:13:03.973Z,30
2019-06-26T16:15:04.982Z,29.3
2019-06-26T16:17:04.823Z,29.3
2019-06-26T16:19:03.902Z,29.5
2019-06-26T16:21:03.946Z,29.1
2019-06-26T16:22:31.434Z,29.5
2019-06-26T16:23:03.928Z,29.7
2019-06-26T16:25:03.957Z,29.8
2019-06-26T16:27:03.896Z,29.4
2019-06-26T16:29:03.902Z,29.5
2019-06-26T16:31:03.908Z,29.6
2019-06-26T16:33:03.936Z,29.6
2019-06-26T16:35:03.894Z,29.3
2019-06-26T16:37:03.943Z,29.3
2019-06-26T16:37:20.956Z,29.3
2019-06-26T16:39:03.837Z,29.4
2019-06-26T16:41:03.947Z,29.3
2019-06-26T16:43:03.892Z,29.6
2019-06-26T16:45:03.947Z,30.1
2019-06-26T16:47:03.907Z,30.1
2019-06-26T16:49:03.976Z,29.8
2019-06-26T16:51:03.907Z,29.4
2019-06-26T16:52:20.919Z,29.3
2019-06-26T16:53:03.933Z,29.2
2019-06-26T16:55:03.825Z,29
2019-06-26T16:57:03.933Z,29.2
2019-06-26T16:59:03.903Z,29.3
2019-06-26T17:01:03.889Z,29.3
2019-06-26T17:03:03.959Z,29.1
2019-06-26T17:05:04.052Z,28.8
2019-06-26T17:07:03.886Z,28.8
2019-06-26T17:07:20.857Z,28.8
2019-06-26T17:09:03.902Z,29.1
2019-06-26T17:11:03.960Z,29.4
2019-06-26T17:13:03.996Z,29.1
2019-06-26T17:15:04.188Z,29
2019-06-26T17:17:03.939Z,29.1
2019-06-26T17:19:08.811Z,29.2
2019-06-26T17:21:03.894Z,28.3
2019-06-26T17:22:20.918Z,28.7
2019-06-26T17:23:05.945Z,28.7
2019-06-26T17:25:03.869Z,28.7
2019-06-26T17:27:03.931Z,28.4
2019-06-26T17:29:04.818Z,28.6
2019-06-26T17:31:03.955Z,28.6
2019-06-26T17:33:03.895Z,28.6
2019-06-26T17:35:03.906Z,28.6
2019-06-26T17:37:03.964Z,28.6
2019-06-26T17:37:20.952Z,28.3
2019-06-26T17:39:03.893Z,28.4
2019-06-26T17:41:03.937Z,28.6
2019-06-26T17:43:12.146Z,28.9
2019-06-26T17:45:03.934Z,28.9
2019-06-26T17:47:05.428Z,28.6
2019-06-26T17:49:03.940Z,28.3
2019-06-26T17:51:03.962Z,28.7
2019-06-26T17:52:20.904Z,28.6
2019-06-26T17:53:03.944Z,28.3
2019-06-26T17:55:03.913Z,28.6
2019-06-26T17:57:03.855Z,28.9
2019-06-26T17:59:03.992Z,28.4
2019-06-26T18:01:03.887Z,27.8
2019-06-26T18:03:03.937Z,27.7
2019-06-26T18:05:03.873Z,27.8
2019-06-26T18:07:03.937Z,27.6
2019-06-26T18:07:20.795Z,27.6
2019-06-26T18:09:03.939Z,27.4
2019-06-26T18:11:03.932Z,27.8
2019-06-26T18:13:03.956Z,27.8
2019-06-26T18:15:03.985Z,27.8
2019-06-26T18:17:17.858Z,27.7
2019-06-26T18:19:03.989Z,27.4
2019-06-26T18:21:04.821Z,27.3
2019-06-26T18:22:20.897Z,27.1
2019-06-26T18:23:07.343Z,27.1
2019-06-26T18:25:04.068Z,27.3
2019-06-26T18:27:04.147Z,27
2019-06-26T18:29:04.897Z,26.9
2019-06-26T18:31:04.811Z,27
2019-06-26T18:33:03.945Z,27.1
2019-06-26T18:35:03.886Z,27.1
2019-06-26T18:37:04.818Z,27
2019-06-26T18:37:20.812Z,27
2019-06-26T18:39:03.962Z,26.6
2019-06-26T18:41:03.947Z,26.9
2019-06-26T18:43:03.935Z,26.9
2019-06-26T18:45:03.963Z,26.6
2019-06-26T18:47:03.942Z,26.6
2019-06-26T18:49:03.931Z,26.7
2019-06-26T18:51:03.945Z,26.7
2019-06-26T18:52:20.859Z,26.5
2019-06-26T18:53:04.006Z,26.5
2019-06-26T18:55:03.949Z,26.1
2019-06-26T18:57:03.909Z,26.2
2019-06-26T18:59:04.778Z,26.1
2019-06-26T19:01:04.831Z,26.1
2019-06-26T19:03:03.940Z,26.1
2019-06-26T19:05:03.936Z,26
2019-06-26T19:07:03.890Z,25.9
2019-06-26T19:07:20.873Z,25.9
2019-06-26T19:09:03.906Z,25.8
2019-06-26T19:11:03.963Z,25.8
2019-06-26T19:13:04.018Z,25.8
2019-06-26T19:15:03.914Z,25.8
2019-06-26T19:17:03.979Z,25.8
2019-06-26T19:19:03.929Z,25.4
2019-06-26T19:21:03.934Z,25.4
2019-06-26T19:22:20.969Z,25.4
2019-06-26T19:23:03.960Z,25.5
2019-06-26T19:25:03.941Z,25.3
2019-06-26T19:27:07.310Z,25.1
2019-06-26T19:29:03.948Z,25.3
2019-06-26T19:31:03.911Z,25
2019-06-26T19:33:03.950Z,25
2019-06-26T19:37:04.813Z,24.9
2019-06-26T19:37:20.884Z,24.9
2019-06-26T19:39:03.951Z,24.8
2019-06-26T19:41:03.851Z,24.6
2019-06-26T19:43:03.964Z,24.6
2019-06-26T19:45:03.938Z,24.4
2019-06-26T19:47:03.973Z,24.4
2019-06-26T19:49:04.021Z,24.4
2019-06-26T19:51:03.931Z,24.4
2019-06-26T19:52:20.903Z,24.4
2019-06-26T19:53:03.939Z,24.5
2019-06-26T19:55:04.034Z,24.4
2019-06-26T19:57:03.885Z,24.3
2019-06-26T19:59:03.897Z,24.3
2019-06-26T20:01:04.814Z,24.3
2019-06-26T20:03:03.965Z,24.3
2019-06-26T20:05:03.906Z,24.1
2019-06-26T20:07:03.931Z,24.1
2019-06-26T20:07:21.726Z,24
2019-06-26T20:09:03.804Z,24
2019-06-26T20:11:03.941Z,24
2019-06-26T20:13:04.837Z,23.9
2019-06-26T20:15:03.987Z,23.8
2019-06-26T20:17:03.948Z,23.8
2019-06-26T20:19:03.966Z,23.8
2019-06-26T20:21:03.897Z,23.9
2019-06-26T20:22:20.825Z,23.8
2019-06-26T20:23:03.948Z,23.8
2019-06-26T20:25:03.940Z,23.7
2019-06-26T20:27:03.889Z,23.8
2019-06-26T20:29:03.878Z,23.7
2019-06-26T20:31:03.904Z,23.7
2019-06-26T20:33:03.924Z,23.7
2019-06-26T20:35:03.976Z,23.5
2019-06-26T20:37:03.954Z,23.4
2019-06-26T20:37:20.735Z,23.3
2019-06-26T20:39:03.808Z,23.3
2019-06-26T20:41:03.923Z,23.3
2019-06-26T20:43:03.933Z,23.2
2019-06-26T20:45:03.957Z,23.2
2019-06-26T20:47:03.888Z,23.1
2019-06-26T20:49:03.908Z,23.1
2019-06-26T20:51:03.935Z,23
2019-06-26T20:52:20.892Z,23
2019-06-26T20:53:03.930Z,23
2019-06-26T20:55:03.902Z,22.9
2019-06-26T20:57:03.884Z,22.9
2019-06-26T20:59:03.899Z,22.8
2019-06-26T21:01:03.934Z,22.8
2019-06-26T21:03:03.944Z,22.7
2019-06-26T21:05:03.916Z,22.7
2019-06-26T21:07:03.892Z,22.7
2019-06-26T21:07:20.929Z,22.7
2019-06-26T21:09:03.979Z,22.6
2019-06-26T21:11:03.906Z,22.4
2019-06-26T21:13:03.930Z,22.4
2019-06-26T21:15:04.123Z,22.4
2019-06-26T21:17:03.961Z,22.4
2019-06-26T21:19:03.942Z,22.3
2019-06-26T21:21:03.992Z,22.3
2019-06-26T21:22:20.902Z,22.3
2019-06-26T21:23:03.941Z,22.3
2019-06-26T21:25:17.306Z,22.3
2019-06-26T21:27:13.922Z,22.3
2019-06-26T21:29:03.955Z,22.3
2019-06-26T21:31:04.076Z,22.1
2019-06-26T21:33:03.938Z,22.1
2019-06-26T21:35:03.936Z,22
2019-06-26T21:37:03.950Z,22
2019-06-26T21:37:20.876Z,22.1
2019-06-26T21:39:05.837Z,21.9
2019-06-26T21:41:03.977Z,22.1
2019-06-26T21:43:03.937Z,22
2019-06-26T21:45:03.979Z,21.8
2019-06-26T21:47:03.931Z,21.8
2019-06-26T21:49:03.995Z,21.7
2019-06-26T21:51:03.950Z,21.6
2019-06-26T21:52:20.999Z,21.6
2019-06-26T21:53:03.882Z,21.6
2019-06-26T21:55:04.822Z,21.5
2019-06-26T21:57:03.959Z,21.4
2019-06-26T21:59:03.912Z,21.4
2019-06-26T22:01:03.903Z,21.4
2019-06-26T22:03:03.888Z,21.4
2019-06-26T22:05:03.930Z,21.3
2019-06-26T22:07:03.863Z,21.2
2019-06-26T22:07:20.894Z,21.2
2019-06-26T22:09:03.929Z,21.2
2019-06-26T22:11:03.905Z,21.2
2019-06-26T22:13:03.925Z,21.1
2019-06-26T22:15:03.899Z,21
2019-06-26T22:17:03.985Z,21
2019-06-26T22:19:03.872Z,21
2019-06-26T22:21:03.971Z,21.1
2019-06-26T22:22:20.923Z,21.1
2019-06-26T22:23:03.914Z,21.1
2019-06-26T22:25:03.990Z,20.9
2019-06-26T22:27:03.906Z,20.8
2019-06-26T22:29:03.942Z,20.8
2019-06-26T22:31:04.875Z,20.8
2019-06-26T22:33:03.940Z,20.8
2019-06-26T22:35:03.812Z,20.8
2019-06-26T22:37:03.949Z,20.8
2019-06-26T22:37:20.909Z,20.8
2019-06-26T22:39:03.949Z,20.8
2019-06-26T22:41:03.934Z,20.8
2019-06-26T22:43:03.892Z,20.8
2019-06-26T22:45:03.938Z,20.6
2019-06-26T22:47:03.878Z,20.6
2019-06-26T22:49:03.942Z,20.6
2019-06-26T22:51:03.900Z,20.6
2019-06-26T22:52:20.945Z,20.6
2019-06-26T22:53:03.940Z,20.6
2019-06-26T22:55:03.884Z,20.5
2019-06-26T22:57:03.904Z,20.4
2019-06-26T22:59:08.860Z,20.4
2019-06-26T23:01:03.899Z,20.4
2019-06-26T23:03:03.944Z,20.3
2019-06-26T23:05:03.928Z,20.3
2019-06-26T23:07:03.836Z,20.3
2019-06-26T23:07:20.890Z,20.2
2019-06-26T23:09:04.766Z,20.2
2019-06-26T23:11:03.893Z,20.2
2019-06-26T23:13:03.953Z,20.1
2019-06-26T23:15:03.962Z,20.1
2019-06-26T23:17:03.932Z,19.9
2019-06-26T23:19:03.950Z,20
2019-06-26T23:21:03.942Z,19.9
2019-06-26T23:22:20.897Z,19.9
2019-06-26T23:23:03.941Z,20
2019-06-26T23:25:03.950Z,20
2019-06-26T23:27:03.957Z,19.9
2019-06-26T23:29:03.900Z,19.9
2019-06-26T23:31:03.898Z,19.8
2019-06-26T23:33:03.953Z,19.7
2019-06-26T23:35:03.899Z,19.7
2019-06-26T23:37:03.943Z,19.6
2019-06-26T23:37:20.873Z,19.6